createdAt,value
2022-11-23T00:08:53.700Z,7.9
2022-11-23T00:23:22.895Z,8
2022-11-23T00:37:53.027Z,8.1
2022-11-23T00:52:22.871Z,8.1
2022-11-23T01:06:52.558Z,8.2
2022-11-23T01:21:22.498Z,8.2
2022-11-23T01:35:52.576Z,8.1
2022-11-23T01:50:21.305Z,8.1
2022-11-23T02:04:51.194Z,8
2022-11-23T02:19:20.464Z,8
2022-11-23T02:33:49.392Z,7.9
2022-11-23T02:48:19.960Z,7.9
2022-11-23T03:02:50.298Z,8
2022-11-23T03:17:19.810Z,8
2022-11-23T03:31:49.513Z,8
2022-11-23T03:46:19.420Z,8.1
2022-11-23T04:00:49.679Z,8.1
2022-11-23T04:15:18.943Z,8.1
2022-11-23T04:30:02.287Z,8.1
2022-11-23T04:44:23.865Z,8.1
2022-11-23T04:58:54.117Z,8.1
2022-11-23T05:13:22.909Z,8.1
2022-11-23T05:27:52.380Z,7.9
2022-11-23T05:42:21.930Z,7.9
2022-11-23T05:56:51.360Z,7.8
2022-11-23T06:11:21.359Z,7.8
2022-11-23T06:25:51.276Z,7.8
2022-11-23T06:40:21.041Z,7.9
2022-11-23T06:54:49.839Z,7.8
2022-11-23T07:09:19.977Z,7.8
2022-11-23T07:23:50.282Z,7.9
2022-11-23T07:38:19.656Z,8
2022-11-23T07:52:49.662Z,8.1
2022-11-23T08:07:19.726Z,8.1
2022-11-23T08:21:49.460Z,8.2
2022-11-23T08:36:20.344Z,8.3
2022-11-23T08:50:51.485Z,8.3
2022-11-23T09:05:20.250Z,8
2022-11-23T09:19:56.691Z,7.8
2022-11-23T09:34:22.942Z,7.4
2022-11-23T09:48:50.345Z,7.4
2022-11-23T10:03:19.989Z,7.3
2022-11-23T10:17:48.846Z,7.4
2022-11-23T10:32:18.968Z,7.4
2022-11-23T10:46:48.473Z,6.5
2022-11-23T11:01:17.993Z,7
2022-11-23T11:15:48.253Z,6.5
2022-11-23T11:30:16.351Z,6.3
2022-11-23T11:44:47.596Z,5.8
2022-11-23T11:59:18.112Z,5.8
2022-11-23T12:13:47.245Z,5.5
2022-11-23T12:28:17.061Z,5.6
2022-11-23T12:42:46.610Z,5.4
2022-11-23T12:57:15.804Z,5.5
2022-11-23T13:11:45.227Z,5.3
2022-11-23T13:26:15.744Z,5.2
2022-11-23T13:40:46.270Z,5.3
2022-11-23T13:55:14.873Z,5.1
2022-11-23T14:09:42.973Z,4.7
2022-11-23T14:24:16.390Z,4.9
2022-11-23T14:38:43.375Z,5
2022-11-23T14:53:13.550Z,5
2022-11-23T15:07:43.350Z,5
2022-11-23T15:22:11.732Z,4.7
2022-11-23T15:36:41.657Z,5
2022-11-23T15:51:11.121Z,4.9
2022-11-23T16:05:40.484Z,5
2022-11-23T16:20:10.417Z,5.5
2022-11-23T16:34:39.346Z,5.9
2022-11-23T16:49:08.514Z,7.1
2022-11-23T17:03:37.989Z,7.3
2022-11-23T17:18:06.787Z,7.9
2022-11-23T17:32:37.556Z,7.9
2022-11-23T17:47:05.332Z,7.7
2022-11-23T18:01:35.021Z,7.5
2022-11-23T18:16:02.517Z,7.5
2022-11-23T18:30:33.211Z,7.4
2022-11-23T18:45:04.317Z,7.5
2022-11-23T19:00:03.951Z,7.6
2022-11-23T19:14:17.442Z,7.6
2022-11-23T19:28:47.582Z,7.6
2022-11-23T19:43:16.409Z,7.6
2022-11-23T19:57:46.808Z,7.8
2022-11-23T20:12:13.570Z,7.4
2022-11-23T20:26:43.420Z,7.6
2022-11-23T20:41:20.707Z,7.7
2022-11-23T20:55:46.133Z,7.7
2022-11-23T21:10:15.818Z,7.9
2022-11-23T21:24:46.671Z,7.8
2022-11-23T21:39:15.364Z,7.8
2022-11-23T21:53:45.101Z,7.8
2022-11-23T22:08:30.346Z,7.5
2022-11-23T22:22:50.612Z,7.6
2022-11-23T22:37:21.321Z,7.6
2022-11-23T22:51:51.098Z,7.7
2022-11-23T23:06:19.190Z,7.7
2022-11-23T23:20:49.076Z,7.7
2022-11-23T23:35:19.596Z,7.5
2022-11-23T23:49:48.954Z,7.4
